Time;durP1;ratioP1;P1;durP2;ratioP2;P2;SDS_P1;SDS_P2;PMS_P1;PMS_P2;Temp;Humidity;BMP_temperature;BMP_pressure;BME280_temperature;BME280_humidity;BME280_pressure;Samples;Min_cycle;Max_cycle;Signal;HPM_P1;HPM_P2
2021/05/30 00:01:27;;;;;;;3.05;1.88;;;;;;;11.43;67.02;98932.03;5056088;28;20043;-69
2021/05/30 00:03:53;;;;;;;2.63;2.13;;;;;;;11.35;66.56;98926.78;5039668;28;20032;-69
2021/05/30 00:06:19;;;;;;;5.28;1.85;;;;;;;11.30;66.03;98927.31;5072788;28;20056;-69
2021/05/30 00:08:45;;;;;;;4.75;1.98;;;;;;;11.26;66.08;98935.84;5056197;28;20475;-70
2021/05/30 00:11:11;;;;;;;4.13;2.05;;;;;;;11.22;66.24;98938.03;5073029;28;20043;-70
2021/05/30 00:13:38;;;;;;;4.47;1.90;;;;;;;11.17;66.00;98939.56;5056003;28;20036;-70
2021/05/30 00:16:04;;;;;;;2.75;1.65;;;;;;;11.16;65.88;98945.91;5072885;28;20150;-69
2021/05/30 00:18:30;;;;;;;4.10;1.55;;;;;;;11.12;65.65;98942.75;5056142;28;20043;-69
2021/05/30 00:20:56;;;;;;;2.63;1.60;;;;;;;11.08;65.88;98948.59;5055961;28;20035;-69
2021/05/30 00:23:22;;;;;;;4.00;1.88;;;;;;;11.08;66.04;98948.59;5039456;28;20024;-70
2021/05/30 00:25:48;;;;;;;3.72;1.90;;;;;;;11.09;65.99;98951.09;5055931;28;20063;-69
2021/05/30 00:28:13;;;;;;;4.30;1.70;;;;;;;11.08;65.93;98954.75;5039395;28;20444;-70
2021/05/30 00:30:40;;;;;;;4.95;2.00;;;;;;;11.07;66.64;98958.41;5056069;28;20109;-70
2021/05/30 00:33:06;;;;;;;4.63;1.80;;;;;;;11.05;66.82;98954.28;5058493;28;20096;-69
2021/05/30 00:35:32;;;;;;;2.00;1.80;;;;;;;10.94;66.98;98941.41;5059695;28;20472;-70
2021/05/30 00:37:58;;;;;;;3.05;2.30;;;;;;;11.03;66.91;98957.13;5076447;28;20539;-69
2021/05/30 00:40:25;;;;;;;9.15;2.25;;;;;;;11.04;66.65;98960.59;5076169;28;20074;-69
2021/05/30 00:42:50;;;;;;;8.35;2.03;;;;;;;11.01;66.53;98953.78;5094260;28;20068;-69
2021/05/30 00:45:16;;;;;;;9.52;3.92;;;;;;;11.01;66.18;98955.66;5059613;28;20071;-70
2021/05/30 00:47:42;;;;;;;2.72;2.00;;;;;;;10.95;66.06;98956.34;5059462;28;20039;-70
2021/05/30 00:50:09;;;;;;;3.33;2.00;;;;;;;10.96;65.99;98952.69;5042900;28;20032;-69
2021/05/30 00:52:35;;;;;;;3.30;2.05;;;;;;;10.87;65.36;98953.75;5059691;28;20043;-70
2021/05/30 00:55:01;;;;;;;4.60;1.75;;;;;;;10.81;65.20;98947.28;5076067;28;20033;-71
2021/05/30 00:57:28;;;;;;;3.35;1.88;;;;;;;10.77;65.42;98964.59;5059430;28;20089;-70
2021/05/30 00:59:53;;;;;;;6.10;2.40;;;;;;;10.74;65.46;98956.97;5058962;28;20044;-69
2021/05/30 01:02:19;;;;;;;1.83;1.60;;;;;;;10.74;65.47;98964.13;5059433;28;20491;-69
2021/05/30 01:04:48;;;;;;;4.20;1.90;;;;;;;10.68;65.41;98968.31;5060128;28;20036;-69
2021/05/30 01:07:16;;;;;;;5.10;2.25;;;;;;;10.68;65.26;98963.00;5092790;28;20041;-69
2021/05/30 01:09:42;;;;;;;4.47;1.83;;;;;;;10.69;65.03;98969.94;5075964;28;20040;-70
2021/05/30 01:12:08;;;;;;;3.92;1.90;;;;;;;10.65;64.59;98971.31;5059434;28;20036;-69
2021/05/30 01:14:35;;;;;;;5.07;2.17;;;;;;;10.61;64.45;98971.84;5058930;28;20425;-70
2021/05/30 01:17:04;;;;;;;3.78;2.22;;;;;;;10.61;64.44;98979.81;5059026;28;20044;-70
2021/05/30 01:19:33;;;;;;;3.63;2.20;;;;;;;10.60;64.54;98986.94;5075539;28;20561;-70
2021/05/30 01:21:59;;;;;;;2.80;1.90;;;;;;;10.61;64.74;98985.13;5058927;28;20035;-70
2021/05/30 01:24:25;;;;;;;4.43;1.90;;;;;;;10.59;64.15;98981.78;5059025;28;20036;-70
2021/05/30 01:26:51;;;;;;;5.68;1.95;;;;;;;10.57;64.07;98994.41;5058675;28;20495;-70
2021/05/30 01:29:16;;;;;;;1.80;1.70;;;;;;;10.54;64.04;98989.44;5092169;28;20028;-69
2021/05/30 01:31:42;;;;;;;2.58;1.70;;;;;;;10.50;63.77;98981.00;5092082;28;20059;-70
2021/05/30 01:34:08;;;;;;;3.92;1.58;;;;;;;10.50;63.84;98985.50;5075537;28;20032;-69
2021/05/30 01:36:34;;;;;;;5.15;1.80;;;;;;;10.48;63.97;98982.19;5075248;28;20123;-70
2021/05/30 01:39:00;;;;;;;2.72;1.85;;;;;;;10.37;63.87;98963.97;5058547;28;20124;-69
2021/05/30 01:41:26;;;;;;;5.10;1.90;;;;;;;10.48;64.07;98988.31;5058537;28;20100;-69
2021/05/30 01:43:52;;;;;;;3.90;2.03;;;;;;;10.44;64.01;98979.03;5074451;28;20375;-69
2021/05/30 01:46:18;;;;;;;8.45;2.30;;;;;;;10.40;63.75;98979.56;5041716;28;20130;-70
2021/05/30 01:48:44;;;;;;;5.75;1.88;;;;;;;10.40;63.69;98979.56;5058417;28;20058;-70
2021/05/30 01:51:10;;;;;;;3.83;1.85;;;;;;;10.41;63.80;98976.72;5058457;28;20162;-69
2021/05/30 01:53:41;;;;;;;4.30;1.67;;;;;;;10.45;63.85;98979.88;5058329;28;20505;-70
2021/05/30 01:58:33;;;;;;;2.50;1.90;;;;;;;10.51;63.72;98989.78;5058011;28;20048;-69
2021/05/30 02:00:59;;;;;;;4.97;1.70;;;;;;;10.54;63.57;98997.41;5074653;28;20039;-69
2021/05/30 02:03:27;;;;;;;4.93;1.88;;;;;;;10.50;63.50;98994.28;5091517;28;20387;-69
2021/05/30 02:05:54;;;;;;;4.00;1.65;;;;;;;10.50;63.18;98998.78;5074748;28;20051;-70
2021/05/30 02:08:20;;;;;;;5.32;1.98;;;;;;;10.51;63.39;99003.91;5074622;28;20043;-69
2021/05/30 02:10:46;;;;;;;4.32;2.00;;;;;;;10.52;63.43;99008.22;5057719;28;20093;-70
2021/05/30 02:13:13;;;;;;;4.70;2.03;;;;;;;10.55;63.32;99013.16;5058179;28;20044;-69
2021/05/30 02:15:39;;;;;;;3.45;1.90;;;;;;;10.53;62.86;99012.53;5057958;28;20039;-70
2021/05/30 02:18:06;;;;;;;2.78;1.70;;;;;;;10.53;63.14;99006.38;5074093;28;20055;-70
2021/05/30 02:20:39;;;;;;;5.63;2.00;;;;;;;10.53;63.08;98996.59;5074409;28;20463;-70
2021/05/30 02:23:08;;;;;;;2.83;1.90;;;;;;;10.54;62.75;99000.91;5074516;28;20047;-70
2021/05/30 02:25:34;;;;;;;4.07;1.75;;;;;;;10.46;62.71;98994.78;5057535;28;20040;-69
2021/05/30 02:28:00;;;;;;;3.92;1.65;;;;;;;10.56;62.82;99000.72;5074156;28;20092;-70
2021/05/30 02:30:26;;;;;;;7.75;1.95;;;;;;;10.59;62.42;99014.50;5057773;28;20417;-69
2021/05/30 02:32:52;;;;;;;4.47;1.70;;;;;;;10.62;62.45;99018.63;5040853;28;20051;-69
2021/05/30 02:35:18;;;;;;;2.97;1.75;;;;;;;10.63;62.23;99022.91;5040849;28;20032;-69
2021/05/30 02:37:44;;;;;;;5.72;1.70;;;;;;;10.66;62.00;99031.38;5057462;28;20031;-70
2021/05/30 02:40:11;;;;;;;2.13;1.70;;;;;;;10.69;62.03;99031.03;5041096;28;20127;-70
2021/05/30 02:42:37;;;;;;;2.85;1.77;;;;;;;10.74;61.84;99036.66;5057403;28;20062;-70
2021/05/30 02:45:04;;;;;;;3.92;1.52;;;;;;;10.76;61.69;99029.34;5057248;28;20462;-70
2021/05/30 02:47:30;;;;;;;4.20;1.88;;;;;;;10.79;61.66;99036.13;5073846;28;20032;-69
2021/05/30 02:49:56;;;;;;;3.70;1.60;;;;;;;10.81;61.49;99036.81;5073741;28;20043;-69
2021/05/30 02:52:22;;;;;;;3.50;1.80;;;;;;;10.83;61.10;99034.78;5057293;28;20069;-69
2021/05/30 02:54:48;;;;;;;3.25;1.75;;;;;;;10.84;61.43;99037.25;5040233;28;20027;-69
2021/05/30 02:57:14;;;;;;;4.88;2.22;;;;;;;10.85;61.65;99033.63;5040628;28;20032;-69
2021/05/30 02:59:39;;;;;;;4.70;1.90;;;;;;;10.88;61.07;99037.75;5040213;28;20150;-70
2021/05/30 03:02:05;;;;;;;3.92;1.70;;;;;;;10.80;61.34;99041.28;5040459;28;20387;-70
2021/05/30 03:04:33;;;;;;;4.32;1.80;;;;;;;10.90;61.42;99057.00;5073789;28;20467;-70
2021/05/30 03:07:00;;;;;;;2.88;1.80;;;;;;;10.89;61.13;99050.00;5056703;28;20135;-69
2021/05/30 03:09:26;;;;;;;4.20;1.80;;;;;;;10.86;61.27;99045.88;5057050;28;20043;-70
2021/05/30 03:11:52;;;;;;;4.30;1.92;;;;;;;10.84;61.22;99041.75;5073618;28;20035;-70
2021/05/30 03:14:18;;;;;;;3.42;1.67;;;;;;;10.84;60.66;99033.78;5056687;28;20032;-70
2021/05/30 03:16:43;;;;;;;3.25;1.50;;;;;;;10.96;60.68;99054.44;5073219;28;20052;-70
2021/05/30 03:19:09;;;;;;;4.10;1.52;;;;;;;11.00;60.40;99052.28;5040103;28;20089;-69
2021/05/30 03:21:35;;;;;;;2.28;1.65;;;;;;;11.00;60.09;99053.13;5056723;28;20036;-70
2021/05/30 03:24:03;;;;;;;6.85;1.95;;;;;;;11.01;59.72;99052.09;5039910;28;20031;-69
2021/05/30 03:26:29;;;;;;;2.03;1.60;;;;;;;11.05;60.00;99065.88;5040434;28;20036;-70
2021/05/30 03:28:54;;;;;;;4.85;1.40;;;;;;;11.01;59.85;99049.44;5073118;28;20036;-70
2021/05/30 03:31:20;;;;;;;3.45;1.90;;;;;;;11.12;59.33;99064.16;5073315;28;20043;-70
2021/05/30 03:33:46;;;;;;;2.75;1.75;;;;;;;11.10;59.14;99061.69;5057086;28;20523;-70
2021/05/30 03:36:17;;;;;;;5.20;1.75;;;;;;;11.06;59.12;99063.06;5039810;28;20131;-69
2021/05/30 03:38:43;;;;;;;3.60;1.48;;;;;;;10.96;59.23;99041.16;5074024;28;20032;-70
2021/05/30 03:41:12;;;;;;;2.75;1.38;;;;;;;11.15;59.20;99071.78;5056439;28;20055;-70
2021/05/30 03:43:40;;;;;;;4.45;1.70;;;;;;;11.26;59.22;99072.22;5089883;28;20043;-69
2021/05/30 03:46:05;;;;;;;4.15;1.70;;;;;;;11.39;59.15;99075.13;5073137;28;20062;-70
2021/05/30 03:48:31;;;;;;;4.57;1.80;;;;;;;11.45;58.75;99062.97;5056439;28;20041;-69
2021/05/30 03:50:57;;;;;;;3.67;1.65;;;;;;;11.46;57.87;99068.09;5039565;28;20047;-69
2021/05/30 03:53:23;;;;;;;4.72;1.75;;;;;;;11.45;58.06;99073.59;5056182;28;20048;-70
2021/05/30 03:55:50;;;;;;;4.35;1.40;;;;;;;11.48;58.01;99070.59;5072977;28;20039;-72
2021/05/30 03:58:16;;;;;;;4.32;1.70;;;;;;;11.53;57.75;99069.03;5089970;28;20035;-69
2021/05/30 04:00:42;;;;;;;3.50;1.75;;;;;;;11.63;57.56;99074.16;5090971;28;20085;-70
2021/05/30 04:03:09;;;;;;;4.65;1.85;;;;;;;11.70;57.46;99072.44;5072885;28;20430;-69
2021/05/30 04:05:34;;;;;;;7.88;1.90;;;;;;;11.76;57.23;99074.41;5072817;28;20067;-69
2021/05/30 04:08:01;;;;;;;6.00;1.60;;;;;;;11.77;56.94;99062.75;5058997;28;20135;-70
2021/05/30 04:10:27;;;;;;;4.90;1.55;;;;;;;11.79;57.03;99066.06;5077002;28;20114;-69
2021/05/30 04:12:53;;;;;;;7.30;1.90;;;;;;;11.86;56.99;99074.97;5043377;28;20031;-70
2021/05/30 04:15:20;;;;;;;5.18;1.70;;;;;;;11.90;56.90;99074.41;5043532;28;20031;-70
2021/05/30 04:17:46;;;;;;;2.28;1.80;;;;;;;11.95;56.78;99063.22;5093883;28;20047;-70
2021/05/30 04:20:15;;;;;;;3.63;1.65;;;;;;;12.01;56.56;99065.16;5043661;28;20039;-69
2021/05/30 04:22:41;;;;;;;4.07;1.80;;;;;;;12.05;56.19;99065.63;5093731;28;20484;-70
2021/05/30 04:25:09;;;;;;;2.13;1.58;;;;;;;12.00;55.82;99063.53;5043490;28;20028;-70
2021/05/30 04:27:36;;;;;;;4.07;2.00;;;;;;;12.00;56.07;99063.53;5076701;28;20042;-70
2021/05/30 04:30:10;;;;;;;4.80;1.58;;;;;;;11.98;55.95;99057.53;5076375;28;20066;-70
2021/05/30 04:32:36;;;;;;;4.50;1.60;;;;;;;12.12;55.69;99071.88;5093298;28;20503;-69
2021/05/30 04:35:03;;;;;;;3.17;1.50;;;;;;;12.19;55.81;99073.66;5076436;28;20046;-70
2021/05/30 04:37:28;;;;;;;3.53;1.40;;;;;;;12.42;55.57;99085.06;5076613;28;20387;-69
2021/05/30 04:39:54;;;;;;;4.82;1.73;;;;;;;12.50;55.09;99071.63;5059335;28;20061;-70
2021/05/30 04:42:20;;;;;;;4.45;1.70;;;;;;;12.44;54.77;99076.91;5043158;28;20525;-69
2021/05/30 04:44:46;;;;;;;3.10;1.63;;;;;;;12.42;54.77;99085.06;5042918;28;20498;-70
2021/05/30 04:47:12;;;;;;;2.47;1.60;;;;;;;12.27;54.84;99073.56;5076596;28;20048;-70
2021/05/30 04:49:39;;;;;;;3.13;1.98;;;;;;;12.32;54.92;99089.81;5059316;28;20119;-70
2021/05/30 04:52:10;;;;;;;5.25;1.63;;;;;;;12.27;55.14;99094.84;5059224;28;20043;-70
2021/05/30 04:54:36;;;;;;;2.88;1.60;;;;;;;12.22;55.57;99102.59;5042907;28;20504;-70
2021/05/30 04:57:02;;;;;;;3.72;1.50;;;;;;;12.23;55.74;99101.56;5042771;28;20028;-70
2021/05/30 04:59:29;;;;;;;4.80;1.67;;;;;;;12.27;55.57;99108.16;5075927;28;20032;-69
2021/05/30 05:01:54;;;;;;;3.22;1.95;;;;;;;12.26;55.78;99101.19;5059142;28;20468;-69
2021/05/30 05:04:20;;;;;;;4.65;1.58;;;;;;;12.19;55.53;99094.97;5059966;28;20118;-70
2021/05/30 05:06:46;;;;;;;6.72;1.70;;;;;;;12.10;55.81;99114.66;5075971;28;20490;-69
2021/05/30 05:09:12;;;;;;;3.53;1.75;;;;;;;12.11;56.19;99116.31;5075783;28;20047;-69
2021/05/30 05:11:38;;;;;;;3.08;1.60;;;;;;;12.13;56.25;99119.59;5093709;28;20044;-69
2021/05/30 05:14:03;;;;;;;5.22;1.60;;;;;;;12.11;56.17;99100.34;5092859;28;20411;-70
2021/05/30 05:16:30;;;;;;;5.53;2.10;;;;;;;12.16;56.29;99105.97;5042355;28;20070;-70
2021/05/30 05:18:56;;;;;;;3.22;1.92;;;;;;;12.20;56.11;99112.56;5091119;28;20082;-70
2021/05/30 05:21:22;;;;;;;5.53;1.90;;;;;;;12.23;55.94;99114.03;5075794;28;20052;-69
2021/05/30 05:23:48;;;;;;;6.43;1.95;;;;;;;12.26;55.89;99111.84;5042129;28;20039;-70
2021/05/30 05:26:14;;;;;;;4.80;1.77;;;;;;;12.30;55.71;99115.78;5042246;28;20387;-70
2021/05/30 05:28:40;;;;;;;4.22;2.10;;;;;;;12.25;55.94;99114.69;5058745;28;20039;-70
2021/05/30 05:31:06;;;;;;;5.20;1.75;;;;;;;12.28;55.99;99119.66;5041930;28;20043;-70
2021/05/30 05:33:31;;;;;;;4.75;1.90;;;;;;;12.32;56.16;99119.09;5058750;28;20051;-69
2021/05/30 05:35:58;;;;;;;6.03;1.70;;;;;;;12.24;55.64;99123.69;5075409;28;20475;-70
2021/05/30 05:38:24;;;;;;;1.67;1.50;;;;;;;12.12;55.94;99119.78;5092163;28;20039;-69
2021/05/30 05:40:50;;;;;;;4.97;1.80;;;;;;;12.13;56.05;99127.59;5075668;28;20075;-70
2021/05/30 05:43:16;;;;;;;5.18;1.65;;;;;;;12.16;56.03;99121.94;5058492;28;20051;-69
2021/05/30 05:45:42;;;;;;;3.90;1.70;;;;;;;12.23;55.75;99132.66;5041668;28;20131;-70
2021/05/30 05:48:12;;;;;;;5.05;2.00;;;;;;;12.13;55.80;99129.44;5041841;28;20044;-69
2021/05/30 05:50:39;;;;;;;4.93;1.98;;;;;;;12.07;55.86;99138.97;5091983;28;20454;-69
2021/05/30 05:53:05;;;;;;;4.57;2.00;;;;;;;12.20;55.79;99133.03;5074875;28;20032;-70
2021/05/30 05:55:32;;;;;;;7.30;2.10;;;;;;;12.33;55.48;99142.06;5074849;28;20365;-70
2021/05/30 05:57:58;;;;;;;4.63;1.50;;;;;;;12.51;55.29;99145.22;5041745;28;20028;-70
2021/05/30 06:00:24;;;;;;;2.67;1.63;;;;;;;12.50;54.82;99142.75;5058161;28;20434;-69
2021/05/30 06:02:51;;;;;;;4.13;1.80;;;;;;;12.46;54.82;99142.28;5041403;28;20047;-70
2021/05/30 06:05:19;;;;;;;4.95;1.85;;;;;;;12.51;54.90;99152.38;5091724;28;20094;-70
2021/05/30 06:07:49;;;;;;;2.65;1.65;;;;;;;12.41;54.77;99147.31;5074660;28;20051;-69
2021/05/30 06:10:16;;;;;;;6.43;1.80;;;;;;;12.32;55.24;99148.41;5041585;28;20035;-70
2021/05/30 06:12:42;;;;;;;4.95;2.00;;;;;;;12.20;55.45;99144.53;5057983;28;20032;-70
2021/05/30 06:15:09;;;;;;;3.80;1.65;;;;;;;12.09;55.69;99155.59;5057645;28;20109;-69
2021/05/30 06:17:35;;;;;;;4.53;1.75;;;;;;;12.10;55.94;99151.91;5090961;28;20070;-69
2021/05/30 06:20:01;;;;;;;2.20;1.73;;;;;;;12.13;55.86;99151.56;5057542;28;20511;-70
2021/05/30 06:22:27;;;;;;;4.30;1.63;;;;;;;12.01;55.88;99136.22;5041388;28;20046;-70
2021/05/30 06:24:54;;;;;;;5.30;1.70;;;;;;;12.11;55.88;99156.25;5074541;28;20028;-69
2021/05/30 06:27:20;;;;;;;5.88;1.75;;;;;;;12.10;56.12;99148.44;5074155;28;20100;-69
2021/05/30 06:29:46;;;;;;;4.20;1.80;;;;;;;12.07;55.70;99160.25;5040564;28;20065;-69
2021/05/30 06:32:12;;;;;;;8.68;2.35;;;;;;;12.02;55.81;99162.66;5040931;28;20054;-69
2021/05/30 06:34:38;;;;;;;4.68;2.00;;;;;;;12.09;55.73;99163.59;5057583;28;20488;-69
2021/05/30 06:37:04;;;;;;;3.28;1.90;;;;;;;12.29;55.55;99171.88;5073982;28;20396;-70
2021/05/30 06:39:30;;;;;;;7.63;2.03;;;;;;;12.48;55.37;99176.72;5057414;28;20036;-70
2021/05/30 06:41:55;;;;;;;1.83;1.50;;;;;;;12.60;54.90;99177.91;5040921;28;20468;-70
2021/05/30 06:44:21;;;;;;;6.45;1.80;;;;;;;12.67;54.28;99178.88;5057474;28;20035;-70
2021/05/30 06:46:47;;;;;;;5.38;1.98;;;;;;;12.63;54.72;99180.22;5040451;28;20523;-70
2021/05/30 06:49:13;;;;;;;3.88;1.80;;;;;;;12.59;54.87;99193.06;5073776;28;20384;-69
2021/05/30 06:51:40;;;;;;;2.25;1.60;;;;;;;12.49;55.13;99191.69;5057617;28;20028;-69
2021/05/30 06:54:07;;;;;;;2.58;1.70;;;;;;;12.41;55.14;99189.91;5073589;28;20038;-70
2021/05/30 06:56:33;;;;;;;4.60;1.60;;;;;;;12.41;55.23;99189.13;5090403;28;20240;-70
2021/05/30 06:58:59;;;;;;;6.43;1.92;;;;;;;12.44;54.95;99181.56;5057113;28;20138;-70
2021/05/30 07:01:25;;;;;;;3.05;1.80;;;;;;;12.37;55.01;99180.66;5040682;28;20038;-69
2021/05/30 07:03:51;;;;;;;3.03;1.60;;;;;;;12.24;55.00;99183.06;5073508;28;20028;-70
2021/05/30 07:06:18;;;;;;;4.93;1.67;;;;;;;12.31;55.17;99200.00;5073493;28;20116;-70
2021/05/30 07:08:44;;;;;;;3.75;1.60;;;;;;;12.32;55.07;99209.63;5090425;28;20154;-70
2021/05/30 07:11:12;;;;;;;4.20;1.70;;;;;;;12.32;55.30;99212.31;5040153;28;20547;-69
2021/05/30 07:13:39;;;;;;;4.75;1.98;;;;;;;12.28;55.19;99212.84;5090270;28;20097;-70
2021/05/30 07:16:05;;;;;;;3.90;1.70;;;;;;;12.23;55.41;99216.03;5056351;28;20056;-70
2021/05/30 07:18:31;;;;;;;6.43;1.60;;;;;;;12.25;55.39;99216.69;5073253;28;20069;-71
2021/05/30 07:20:57;;;;;;;2.60;1.60;;;;;;;12.29;55.37;99217.16;5056672;28;20046;-70
2021/05/30 07:23:23;;;;;;;5.20;2.70;;;;;;;12.28;55.11;99216.34;5073458;28;20044;-70
2021/05/30 07:25:51;;;;;;;3.88;1.75;;;;;;;12.27;55.04;99225.31;5056409;28;20089;-70
2021/05/30 07:28:18;;;;;;;6.10;1.80;;;;;;;12.07;55.16;99208.16;5056547;28;20040;-69
2021/05/30 07:30:44;;;;;;;4.03;1.98;;;;;;;12.15;55.78;99226.75;5073224;28;20036;-70
2021/05/30 07:33:10;;;;;;;5.10;1.92;;;;;;;12.11;55.76;99225.47;5039651;28;20043;-70
2021/05/30 07:35:36;;;;;;;5.15;2.13;;;;;;;12.05;56.03;99242.13;5073511;28;20533;-69
2021/05/30 07:38:03;;;;;;;8.38;2.40;;;;;;;11.96;56.17;99216.59;5056967;28;20068;-70
2021/05/30 07:40:29;;;;;;;5.50;2.45;;;;;;;12.09;56.02;99232.78;5073427;28;20105;-70
2021/05/30 07:42:55;;;;;;;5.07;2.20;;;;;;;12.16;55.63;99235.56;5055762;28;20047;-70
2021/05/30 07:45:21;;;;;;;8.32;2.50;;;;;;;12.23;55.72;99242.66;5056100;28;20035;-69
2021/05/30 07:47:47;;;;;;;2.30;1.77;;;;;;;12.26;55.82;99244.97;5056214;28;20039;-70
2021/05/30 07:50:14;;;;;;;4.90;2.00;;;;;;;12.28;55.68;99232.31;5073369;28;20048;-70
2021/05/30 07:52:40;;;;;;;3.97;1.80;;;;;;;12.22;55.65;99249.00;5056222;28;20044;-70
2021/05/30 07:55:07;;;;;;;5.80;1.90;;;;;;;12.19;55.61;99246.72;5056072;28;20047;-70
2021/05/30 07:57:33;;;;;;;7.00;1.83;;;;;;;12.19;55.38;99230.72;5073012;28;20101;-72
2021/05/30 07:59:59;;;;;;;4.72;1.70;;;;;;;12.47;55.04;99233.66;5073135;28;20574;-69
2021/05/30 08:02:25;;;;;;;4.55;2.00;;;;;;;12.58;54.73;99242.03;5072874;28;20067;-69
2021/05/30 08:04:53;;;;;;;5.18;1.85;;;;;;;12.64;54.52;99235.19;5072615;28;20082;-70
2021/05/30 08:07:19;;;;;;;7.75;1.95;;;;;;;12.70;54.12;99223.78;5056571;28;20096;-70
2021/05/30 08:09:45;;;;;;;4.43;1.60;;;;;;;12.85;54.04;99262.78;5089653;28;20063;-70
2021/05/30 08:12:11;;;;;;;4.82;2.47;;;;;;;12.88;53.84;99254.44;5039309;28;20062;-70
2021/05/30 08:14:37;;;;;;;3.30;2.13;;;;;;;12.89;53.86;99261.41;5089669;28;20040;-70
2021/05/30 08:17:05;;;;;;;6.63;2.00;;;;;;;12.91;53.64;99254.06;5056171;28;20055;-70
2021/05/30 08:19:31;;;;;;;4.20;1.75;;;;;;;12.95;53.79;99267.84;5039452;28;20502;-69
2021/05/30 08:21:57;;;;;;;4.18;2.30;;;;;;;12.99;53.88;99263.81;5039295;28;20044;-70
2021/05/30 08:24:23;;;;;;;4.20;2.33;;;;;;;13.06;53.50;99262.94;5056090;28;20040;-69
2021/05/30 08:26:50;;;;;;;5.68;2.30;;;;;;;13.19;53.38;99268.44;5039403;28;20391;-70
2021/05/30 08:29:16;;;;;;;9.63;2.08;;;;;;;13.36;52.93;99277.91;5089461;28;20044;-70
2021/05/30 08:31:42;;;;;;;7.38;2.08;;;;;;;13.54;52.67;99273.03;5055912;28;20044;-70
2021/05/30 08:34:07;;;;;;;4.55;2.20;;;;;;;13.74;52.18;99269.78;5039221;28;20036;-70
2021/05/30 08:36:33;;;;;;;5.45;2.00;;;;;;;13.89;52.43;99273.25;5039746;28;20506;-70
2021/05/30 08:38:59;;;;;;;7.15;2.50;;;;;;;14.16;51.32;99270.66;5055613;28;20040;-70
2021/05/30 08:41:25;;;;;;;5.35;2.10;;;;;;;14.45;50.20;99256.41;5055655;28;20138;-70
2021/05/30 08:43:50;;;;;;;5.63;1.67;;;;;;;14.93;49.15;99260.91;5055769;28;20040;-70
2021/05/30 08:46:16;;;;;;;5.80;2.05;;;;;;;15.62;47.61;99259.91;5039151;28;20592;-70
2021/05/30 08:48:42;;;;;;;2.92;1.70;;;;;;;16.31;46.34;99261.38;5055792;28;20138;-71
2021/05/30 08:51:12;;;;;;;6.82;1.80;;;;;;;16.80;45.20;99263.72;5055474;28;20498;-70
2021/05/30 08:53:39;;;;;;;3.45;1.60;;;;;;;17.20;43.34;99259.13;5090778;28;20036;-71
2021/05/30 08:56:06;;;;;;;4.40;1.80;;;;;;;17.78;42.37;99267.06;5076350;28;20044;-70
2021/05/30 08:58:37;;;;;;;5.25;1.88;;;;;;;17.75;41.95;99246.00;5076082;28;20071;-70
2021/05/30 09:01:13;;;;;;;7.38;1.65;;;;;;;17.91;41.62;99266.97;5092941;28;20122;-70
2021/05/30 09:04:06;;;;;;;2.70;1.52;;;;;;;17.92;41.37;99274.03;5075833;28;20036;-70
2021/05/30 09:06:35;;;;;;;6.35;1.75;;;;;;;17.54;41.62;99248.97;5076889;28;20040;-70
2021/05/30 09:09:04;;;;;;;9.40;1.88;;;;;;;17.47;42.14;99266.13;5075619;28;20472;-70
2021/05/30 09:11:42;;;;;;;6.85;1.70;;;;;;;17.62;42.13;99266.72;5058933;28;20071;-70
2021/05/30 09:14:13;;;;;;;4.18;2.00;;;;;;;17.72;41.60;99267.91;5092337;28;20044;-71
2021/05/30 09:16:52;;;;;;;4.55;1.95;;;;;;;19.83;38.03;99270.38;5059220;28;20475;-70
2021/05/30 09:19:30;;;;;;;4.00;1.90;;;;;;;22.63;33.03;99264.59;5093475;28;20047;-70
2021/05/30 09:22:15;;;;;;;8.05;1.70;;;;;;;25.35;28.09;99266.09;5058733;28;20063;-70
2021/05/30 09:24:50;;;;;;;8.32;1.42;;;;;;;27.77;24.92;99267.09;5058686;28;20048;-71
2021/05/30 09:27:16;;;;;;;8.45;1.58;;;;;;;29.98;22.92;99253.66;5058568;28;20512;-71
2021/05/30 09:29:42;;;;;;;9.10;1.70;;;;;;;31.17;20.84;99258.47;5075087;28;20336;-70
2021/05/30 09:32:08;;;;;;;6.80;1.77;;;;;;;31.56;19.82;99247.06;5042006;28;20129;-73
2021/05/30 09:34:43;;;;;;;4.63;1.25;;;;;;;32.17;19.01;99253.78;5058717;28;20089;-71
2021/05/30 09:37:09;;;;;;;10.30;1.20;;;;;;;32.97;18.13;99244.84;5058445;28;20036;-72
2021/05/30 09:39:43;;;;;;;5.30;1.02;;;;;;;31.97;18.73;99258.91;5058571;28;20039;-71
2021/05/30 09:42:38;;;;;;;3.42;1.52;;;;;;;30.34;21.05;99263.06;5093072;28;20547;-71
2021/05/30 09:45:10;;;;;;;5.05;1.75;;;;;;;29.43;21.69;99244.94;5059839;28;20047;-70
2021/05/30 09:47:44;;;;;;;5.50;1.10;;;;;;;28.46;21.17;99261.56;5092061;28;20040;-70
2021/05/30 09:50:20;;;;;;;11.90;1.67;;;;;;;27.75;21.85;99266.53;5074880;28;20388;-71
2021/05/30 09:52:47;;;;;;;4.07;1.23;;;;;;;27.65;22.10;99269.31;5074819;28;20044;-70
2021/05/30 09:55:20;;;;;;;5.90;1.70;;;;;;;28.82;20.94;99246.59;5074716;28;20044;-70
2021/05/30 09:58:15;;;;;;;6.32;1.40;;;;;;;29.92;19.67;99252.09;5074752;28;20032;-71
2021/05/30 10:00:43;;;;;;;4.65;0.90;;;;;;;28.92;20.65;99262.91;5074708;28;20088;-71
2021/05/30 10:03:09;;;;;;;8.20;1.30;;;;;;;27.94;21.18;99245.75;5075121;28;20044;-70
2021/05/30 10:05:35;;;;;;;7.35;1.40;;;;;;;28.52;20.52;99254.22;5057582;28;20040;-70
2021/05/30 10:08:02;;;;;;;7.13;1.60;;;;;;;30.00;18.70;99251.47;5074380;28;20031;-71
2021/05/30 10:10:30;;;;;;;7.72;1.52;;;;;;;30.77;18.27;99264.63;5074871;28;20076;-70
2021/05/30 10:12:56;;;;;;;4.88;1.40;;;;;;;30.22;19.30;99263.50;5091211;28;20039;-71
2021/05/30 10:15:22;;;;;;;4.28;1.27;;;;;;;28.30;20.40;99259.22;5041087;28;20036;-70
2021/05/30 10:17:50;;;;;;;5.80;1.23;;;;;;;26.52;21.90;99265.22;5074076;28;20048;-70
2021/05/30 10:20:19;;;;;;;8.57;1.90;;;;;;;26.46;22.71;99260.06;5074216;28;20048;-70
2021/05/30 10:22:50;;;;;;;9.80;1.50;;;;;;;25.78;23.23;99258.44;5074545;28;20139;-70
2021/05/30 10:25:28;;;;;;;6.90;1.50;;;;;;;25.99;22.88;99257.47;5057555;28;20028;-70
2021/05/30 10:28:13;;;;;;;5.55;1.30;;;;;;;26.52;22.13;99237.97;5091069;28;20089;-70
2021/05/30 10:30:49;;;;;;;3.13;1.00;;;;;;;26.14;22.28;99260.22;5074338;28;20071;-70
2021/05/30 10:33:23;;;;;;;8.07;1.30;;;;;;;26.55;21.77;99253.00;5073907;28;20058;-70
2021/05/30 10:35:49;;;;;;;4.57;1.48;;;;;;;26.93;21.52;99247.03;5092048;28;20028;-70
2021/05/30 10:38:44;;;;;;;7.88;1.30;;;;;;;27.58;20.84;99270.69;5073993;28;20035;-70
2021/05/30 10:41:15;;;;;;;7.90;1.30;;;;;;;28.04;20.58;99266.75;5057583;28;20040;-70
2021/05/30 10:43:42;;;;;;;8.50;0.95;;;;;;;28.59;19.74;99263.72;5091078;28;20044;-71
2021/05/30 10:46:08;;;;;;;16.70;1.70;;;;;;;28.66;18.97;99266.94;5090860;28;20048;-70
2021/05/30 10:48:35;;;;;;;8.23;1.85;;;;;;;28.66;19.39;99263.41;5057273;28;20036;-70
2021/05/30 10:51:29;;;;;;;11.18;1.38;;;;;;;28.27;19.55;99266.06;5057174;28;20028;-70
2021/05/30 10:54:07;;;;;;;6.63;1.15;;;;;;;26.80;21.16;99282.19;5059419;28;20024;-70
2021/05/30 10:56:35;;;;;;;9.32;1.88;;;;;;;25.77;22.20;99259.50;5057156;28;20075;-71
2021/05/30 10:59:04;;;;;;;6.95;1.70;;;;;;;25.20;22.85;99287.69;5073797;28;20128;-70
2021/05/30 11:01:44;;;;;;;5.80;1.30;;;;;;;24.44;23.60;99287.00;5090555;28;20061;-70
2021/05/30 11:04:25;;;;;;;7.25;1.20;;;;;;;24.08;24.26;99268.66;5073370;28;20486;-70
2021/05/30 11:06:52;;;;;;;6.93;1.20;;;;;;;23.88;24.35;99279.25;5056548;28;20130;-70
2021/05/30 11:09:18;;;;;;;8.65;1.13;;;;;;;23.47;24.39;99284.38;5056804;28;20130;-70
2021/05/30 11:11:44;;;;;;;3.03;1.00;;;;;;;22.97;24.91;99279.78;5073305;28;20044;-73
2021/05/30 11:14:13;;;;;;;5.75;1.88;;;;;;;22.59;25.18;99295.09;5056854;28;20032;-70
2021/05/30 11:16:44;;;;;;;3.72;0.88;;;;;;;22.22;25.86;99281.13;5089267;28;20104;-70
2021/05/30 11:19:14;;;;;;;7.60;1.83;;;;;;;22.19;26.30;99278.91;5056507;28;20461;-70
2021/05/30 11:21:49;;;;;;;13.32;2.00;;;;;;;22.08;26.32;99282.47;5073482;28;20088;-70
2021/05/30 11:24:17;;;;;;;4.38;1.13;;;;;;;21.93;26.62;99271.34;5056240;28;20493;-70
2021/05/30 11:27:03;;;;;;;6.47;1.08;;;;;;;21.60;26.50;99284.69;5090387;28;20119;-70
2021/05/30 11:29:29;;;;;;;7.95;1.35;;;;;;;21.30;26.85;99278.59;5056398;28;20036;-70
2021/05/30 11:31:55;;;;;;;4.78;2.08;;;;;;;21.01;27.38;99279.50;5089924;28;20036;-70
2021/05/30 11:34:27;;;;;;;8.25;1.52;;;;;;;20.99;27.40;99273.50;5056574;28;20038;-70
2021/05/30 11:37:05;;;;;;;6.22;1.30;;;;;;;20.74;27.67;99284.47;5056052;28;20492;-70
2021/05/30 11:39:45;;;;;;;3.67;1.10;;;;;;;20.21;28.36;99286.31;5073014;28;20036;-70